sensor_id;sensor_type;location;lat;lon;timestamp;temperature;humidity
24232;DHT22;12364;47.810;8.810;2024-01-11T04:45:48;-4.80;99.90
24232;DHT22;12364;47.810;8.810;2024-01-11T04:48:15;-4.20;99.90
24232;DHT22;12364;47.810;8.810;2024-01-11T04:50:42;-4.50;99.90
24232;DHT22;12364;47.810;8.810;2024-01-11T04:53:10;-4.70;99.90
24232;DHT22;12364;47.810;8.810;2024-01-11T04:55:38;-4.90;99.90
24232;DHT22;12364;47.810;8.810;2024-01-11T04:58:05;-4.90;99.90
24232;DHT22;12364;47.810;8.810;2024-01-11T05:00:32;-4.90;99.90
24232;DHT22;12364;47.810;8.810;2024-01-11T05:02:59;-5.00;99.90
24232;DHT22;12364;47.810;8.810;2024-01-11T05:05:26;-4.50;99.90
24232;DHT22;12364;47.810;8.810;2024-01-11T05:07:53;-4.60;99.90
24232;DHT22;12364;47.810;8.810;2024-01-11T05:10:20;-5.10;99.90
24232;DHT22;12364;47.810;8.810;2024-01-11T05:12:47;-5.10;99.90
24232;DHT22;12364;47.810;8.810;2024-01-11T05:15:14;-5.10;99.90
24232;DHT22;12364;47.810;8.810;2024-01-11T05:17:41;-5.00;99.90
24232;DHT22;12364;47.810;8.810;2024-01-11T05:20:09;-5.10;99.90
24232;DHT22;12364;47.810;8.810;2024-01-11T05:22:37;-5.10;99.90
24232;DHT22;12364;47.810;8.810;2024-01-11T05:25:04;-4.80;99.90
24232;DHT22;12364;47.810;8.810;2024-01-11T05:27:31;-4.90;99.90
24232;DHT22;12364;47.810;8.810;2024-01-11T05:29:58;-4.30;99.90
24232;DHT22;12364;47.810;8.810;2024-01-11T05:32:25;-4.80;99.90
24232;DHT22;12364;47.810;8.810;2024-01-11T05:34:53;-4.90;99.90
24232;DHT22;12364;47.810;8.810;2024-01-11T05:37:20;-4.20;99.90
24232;DHT22;12364;47.810;8.810;2024-01-11T05:39:47;-4.60;99.90
24232;DHT22;12364;47.810;8.810;2024-01-11T05:42:14;-4.90;99.90
24232;DHT22;12364;47.810;8.810;2024-01-11T05:44:41;-4.50;99.90
24232;DHT22;12364;47.810;8.810;2024-01-11T05:47:08;-4.80;99.90
24232;DHT22;12364;47.810;8.810;2024-01-11T05:49:36;-4.00;99.90
24232;DHT22;12364;47.810;8.810;2024-01-11T05:52:03;-4.50;99.90
24232;DHT22;12364;47.810;8.810;2024-01-11T05:54:30;-4.60;99.90
24232;DHT22;12364;47.810;8.810;2024-01-11T05:56:57;-4.50;99.90
24232;DHT22;12364;47.810;8.810;2024-01-11T05:59:25;-4.10;99.90
24232;DHT22;12364;47.810;8.810;2024-01-11T06:01:53;-4.20;99.90
24232;DHT22;12364;47.810;8.810;2024-01-11T06:04:20;-4.40;99.90
24232;DHT22;12364;47.810;8.810;2024-01-11T06:06:47;-4.20;99.90
24232;DHT22;12364;47.810;8.810;2024-01-11T06:09:14;-4.30;99.90
24232;DHT22;12364;47.810;8.810;2024-01-11T06:11:41;-4.50;99.90
24232;DHT22;12364;47.810;8.810;2024-01-11T06:14:08;-4.20;99.90
24232;DHT22;12364;47.810;8.810;2024-01-11T06:16:35;-4.40;99.90
24232;DHT22;12364;47.810;8.810;2024-01-11T06:19:03;-4.60;99.90
24232;DHT22;12364;47.810;8.810;2024-01-11T06:21:30;-4.80;99.90
24232;DHT22;12364;47.810;8.810;2024-01-11T06:23:57;-4.80;99.90
24232;DHT22;12364;47.810;8.810;2024-01-11T06:26:24;-4.70;99.90
24232;DHT22;12364;47.810;8.810;2024-01-11T06:28:51;-4.50;99.90
24232;DHT22;12364;47.810;8.810;2024-01-11T06:31:19;-4.30;99.90
24232;DHT22;12364;47.810;8.810;2024-01-11T06:33:45;-4.70;99.90
24232;DHT22;12364;47.810;8.810;2024-01-11T06:36:17;-4.90;99.90
24232;DHT22;12364;47.810;8.810;2024-01-11T06:38:44;-4.80;99.90
24232;DHT22;12364;47.810;8.810;2024-01-11T06:41:11;-4.50;99.90
24232;DHT22;12364;47.810;8.810;2024-01-11T06:43:38;-4.70;99.90
24232;DHT22;12364;47.810;8.810;2024-01-11T06:46:05;-4.40;99.90
24232;DHT22;12364;47.810;8.810;2024-01-11T06:48:32;-4.50;99.90
24232;DHT22;12364;47.810;8.810;2024-01-11T06:51:00;-4.50;99.90
24232;DHT22;12364;47.810;8.810;2024-01-11T06:53:28;-4.70;99.90
24232;DHT22;12364;47.810;8.810;2024-01-11T06:55:55;-4.40;99.90
24232;DHT22;12364;47.810;8.810;2024-01-11T06:58:22;-4.40;99.90
24232;DHT22;12364;47.810;8.810;2024-01-11T07:00:49;-4.50;99.90
24232;DHT22;12364;47.810;8.810;2024-01-11T07:03:17;-4.60;99.90
24232;DHT22;12364;47.810;8.810;2024-01-11T07:05:44;-4.60;99.90
24232;DHT22;12364;47.810;8.810;2024-01-11T07:08:12;-3.80;99.90
24232;DHT22;12364;47.810;8.810;2024-01-11T07:10:39;-4.00;99.90
24232;DHT22;12364;47.810;8.810;2024-01-11T07:13:06;-4.00;99.90
24232;DHT22;12364;47.810;8.810;2024-01-11T07:15:33;-4.40;99.90
24232;DHT22;12364;47.810;8.810;2024-01-11T07:18:00;-4.70;99.90
24232;DHT22;12364;47.810;8.810;2024-01-11T07:20:28;-3.90;99.90
24232;DHT22;12364;47.810;8.810;2024-01-11T07:22:55;-4.00;99.90
24232;DHT22;12364;47.810;8.810;2024-01-11T07:25:22;-4.20;99.90
24232;DHT22;12364;47.810;8.810;2024-01-11T07:27:49;-4.20;99.90
24232;DHT22;12364;47.810;8.810;2024-01-11T07:30:16;-4.10;99.90
24232;DHT22;12364;47.810;8.810;2024-01-11T07:32:45;-4.10;99.90
24232;DHT22;12364;47.810;8.810;2024-01-11T07:35:13;-3.90;99.90
24232;DHT22;12364;47.810;8.810;2024-01-11T07:37:45;-4.20;99.90
24232;DHT22;12364;47.810;8.810;2024-01-11T07:40:12;-3.40;99.90
24232;DHT22;12364;47.810;8.810;2024-01-11T07:42:40;-3.60;99.90
24232;DHT22;12364;47.810;8.810;2024-01-11T07:45:07;-3.90;99.90
24232;DHT22;12364;47.810;8.810;2024-01-11T07:47:34;-3.70;99.90
24232;DHT22;12364;47.810;8.810;2024-01-11T07:50:01;-3.90;99.90
24232;DHT22;12364;47.810;8.810;2024-01-11T07:52:30;-3.90;99.90
24232;DHT22;12364;47.810;8.810;2024-01-11T07:54:58;-3.60;99.90
24232;DHT22;12364;47.810;8.810;2024-01-11T07:57:33;-3.80;99.90
24232;DHT22;12364;47.810;8.810;2024-01-11T08:00:00;-4.30;99.90
24232;DHT22;12364;47.810;8.810;2024-01-11T08:02:28;-4.80;99.90
24232;DHT22;12364;47.810;8.810;2024-01-11T08:04:55;-5.00;99.90
24232;DHT22;12364;47.810;8.810;2024-01-11T08:07:22;-5.00;99.90
24232;DHT22;12364;47.810;8.810;2024-01-11T08:09:49;-5.00;99.90
24232;DHT22;12364;47.810;8.810;2024-01-11T08:12:16;-4.60;99.90
24232;DHT22;12364;47.810;8.810;2024-01-11T08:14:43;-4.50;99.90
24232;DHT22;12364;47.810;8.810;2024-01-11T08:17:13;-4.50;99.90
24232;DHT22;12364;47.810;8.810;2024-01-11T08:19:43;-4.50;99.90
24232;DHT22;12364;47.810;8.810;2024-01-11T08:22:10;-4.70;99.90
24232;DHT22;12364;47.810;8.810;2024-01-11T08:24:38;-4.60;99.90
24232;DHT22;12364;47.810;8.810;2024-01-11T08:27:05;-4.80;99.90
24232;DHT22;12364;47.810;8.810;2024-01-11T08:29:33;-4.80;99.90
24232;DHT22;12364;47.810;8.810;2024-01-11T08:32:00;-4.80;99.90
24232;DHT22;12364;47.810;8.810;2024-01-11T08:34:49;-4.60;99.90
24232;DHT22;12364;47.810;8.810;2024-01-11T08:37:17;-4.30;99.90
24232;DHT22;12364;47.810;8.810;2024-01-11T08:39:44;-4.40;99.90
24232;DHT22;12364;47.810;8.810;2024-01-11T08:42:13;-4.40;99.90
24232;DHT22;12364;47.810;8.810;2024-01-11T08:44:42;-4.20;99.90
24232;DHT22;12364;47.810;8.810;2024-01-11T08:47:09;-4.00;99.90
24232;DHT22;12364;47.810;8.810;2024-01-11T08:49:38;-4.00;99.90
24232;DHT22;12364;47.810;8.810;2024-01-11T08:52:06;-3.90;99.90
24232;DHT22;12364;47.810;8.810;2024-01-11T08:54:33;-4.00;99.90
24232;DHT22;12364;47.810;8.810;2024-01-11T08:57:00;-3.80;99.90
24232;DHT22;12364;47.810;8.810;2024-01-11T08:59:27;-3.90;99.90
24232;DHT22;12364;47.810;8.810;2024-01-11T09:01:55;-3.90;99.90
24232;DHT22;12364;47.810;8.810;2024-01-11T09:04:36;-4.00;99.90
24232;DHT22;12364;47.810;8.810;2024-01-11T09:07:03;-4.20;99.90
24232;DHT22;12364;47.810;8.810;2024-01-11T09:09:30;-4.10;99.90
24232;DHT22;12364;47.810;8.810;2024-01-11T09:12:04;-4.00;99.90
24232;DHT22;12364;47.810;8.810;2024-01-11T09:14:31;-3.80;99.90
24232;DHT22;12364;47.810;8.810;2024-01-11T09:16:58;-3.60;99.90
24232;DHT22;12364;47.810;8.810;2024-01-11T09:19:25;-3.70;99.90
24232;DHT22;12364;47.810;8.810;2024-01-11T09:21:52;-3.50;99.90
24232;DHT22;12364;47.810;8.810;2024-01-11T09:24:20;-3.20;99.90
24232;DHT22;12364;47.810;8.810;2024-01-11T09:26:47;-3.00;99.90
24232;DHT22;12364;47.810;8.810;2024-01-11T09:29:16;-2.90;99.90
24232;DHT22;12364;47.810;8.810;2024-01-11T09:31:43;-2.50;99.90
24232;DHT22;12364;47.810;8.810;2024-01-11T09:34:11;-2.30;99.90
24232;DHT22;12364;47.810;8.810;2024-01-11T09:36:39;-1.90;99.90
24232;DHT22;12364;47.810;8.810;2024-01-11T09:39:06;-1.80;99.90
24232;DHT22;12364;47.810;8.810;2024-01-11T09:41:35;-2.00;99.90
24232;DHT22;12364;47.810;8.810;2024-01-11T09:44:04;-2.20;99.90
24232;DHT22;12364;47.810;8.810;2024-01-11T09:46:31;-2.40;99.90
24232;DHT22;12364;47.810;8.810;2024-01-11T09:48:59;-2.30;99.90
24232;DHT22;12364;47.810;8.810;2024-01-11T09:51:27;-2.10;99.90
24232;DHT22;12364;47.810;8.810;2024-01-11T09:53:55;-2.00;99.90
24232;DHT22;12364;47.810;8.810;2024-01-11T09:56:23;-1.80;99.90
24232;DHT22;12364;47.810;8.810;2024-01-11T09:58:50;-2.10;99.90
24232;DHT22;12364;47.810;8.810;2024-01-11T10:01:17;-2.10;99.90
24232;DHT22;12364;47.810;8.810;2024-01-11T10:03:44;-1.80;99.90
24232;DHT22;12364;47.810;8.810;2024-01-11T10:06:14;-2.10;99.90
24232;DHT22;12364;47.810;8.810;2024-01-11T10:08:42;-2.20;99.90
24232;DHT22;12364;47.810;8.810;2024-01-11T10:11:10;-2.10;99.90
24232;DHT22;12364;47.810;8.810;2024-01-11T10:13:37;-2.40;99.90
24232;DHT22;12364;47.810;8.810;2024-01-11T10:16:09;-2.30;99.90
24232;DHT22;12364;47.810;8.810;2024-01-11T10:18:44;-2.20;99.90
24232;DHT22;12364;47.810;8.810;2024-01-11T10:21:12;-2.20;99.90
24232;DHT22;12364;47.810;8.810;2024-01-11T10:23:39;-2.00;99.90
24232;DHT22;12364;47.810;8.810;2024-01-11T10:26:06;-2.20;99.90
24232;DHT22;12364;47.810;8.810;2024-01-11T10:28:36;-2.20;99.90
24232;DHT22;12364;47.810;8.810;2024-01-11T10:31:04;-2.00;99.90
24232;DHT22;12364;47.810;8.810;2024-01-11T10:33:34;-1.90;99.90
24232;DHT22;12364;47.810;8.810;2024-01-11T10:36:01;-1.90;99.90
24232;DHT22;12364;47.810;8.810;2024-01-11T10:38:29;-1.60;99.90
24232;DHT22;12364;47.810;8.810;2024-01-11T10:40:58;-1.50;99.90
24232;DHT22;12364;47.810;8.810;2024-01-11T10:43:26;-1.40;99.90
24232;DHT22;12364;47.810;8.810;2024-01-11T10:45:54;-1.20;99.90
24232;DHT22;12364;47.810;8.810;2024-01-11T10:48:25;-1.50;99.90
24232;DHT22;12364;47.810;8.810;2024-01-11T10:50:57;-1.60;99.90
24232;DHT22;12364;47.810;8.810;2024-01-11T10:53:34;-1.50;99.90
24232;DHT22;12364;47.810;8.810;2024-01-11T10:56:04;-1.50;99.90
24232;DHT22;12364;47.810;8.810;2024-01-11T10:58:34;-1.40;99.90
24232;DHT22;12364;47.810;8.810;2024-01-11T11:01:02;-1.20;99.90
24232;DHT22;12364;47.810;8.810;2024-01-11T11:03:31;-1.00;99.90
24232;DHT22;12364;47.810;8.810;2024-01-11T11:06:00;-0.90;99.90
24232;DHT22;12364;47.810;8.810;2024-01-11T11:08:27;-1.30;99.90
24232;DHT22;12364;47.810;8.810;2024-01-11T11:10:57;-1.40;99.90
24232;DHT22;12364;47.810;8.810;2024-01-11T11:13:24;-1.30;99.90
24232;DHT22;12364;47.810;8.810;2024-01-11T11:15:52;-1.20;99.90
24232;DHT22;12364;47.810;8.810;2024-01-11T11:18:19;-1.30;99.90
24232;DHT22;12364;47.810;8.810;2024-01-11T11:20:47;-1.50;99.90
24232;DHT22;12364;47.810;8.810;2024-01-11T11:23:15;-1.60;99.90
24232;DHT22;12364;47.810;8.810;2024-01-11T11:25:47;-1.60;99.90
24232;DHT22;12364;47.810;8.810;2024-01-11T11:28:15;-1.30;99.90
24232;DHT22;12364;47.810;8.810;2024-01-11T11:30:43;-1.40;99.90
24232;DHT22;12364;47.810;8.810;2024-01-11T11:33:18;-1.40;99.90
24232;DHT22;12364;47.810;8.810;2024-01-11T11:35:46;-1.40;99.90
24232;DHT22;12364;47.810;8.810;2024-01-11T11:38:17;-1.30;99.90
24232;DHT22;12364;47.810;8.810;2024-01-11T11:40:45;-1.20;99.90
24232;DHT22;12364;47.810;8.810;2024-01-11T11:43:13;-1.30;99.90
24232;DHT22;12364;47.810;8.810;2024-01-11T11:45:40;-1.20;99.90
24232;DHT22;12364;47.810;8.810;2024-01-11T11:51:09;-1.40;99.90
24232;DHT22;12364;47.810;8.810;2024-01-11T11:53:37;-1.20;99.90
24232;DHT22;12364;47.810;8.810;2024-01-11T11:56:05;-0.80;99.90
24232;DHT22;12364;47.810;8.810;2024-01-11T11:58:33;-0.50;99.90
24232;DHT22;12364;47.810;8.810;2024-01-11T12:01:01;-0.50;99.90
24232;DHT22;12364;47.810;8.810;2024-01-11T12:03:29;-0.50;99.90
24232;DHT22;12364;47.810;8.810;2024-01-11T12:05:57;-0.60;99.90
24232;DHT22;12364;47.810;8.810;2024-01-11T12:08:24;-0.50;99.90
24232;DHT22;12364;47.810;8.810;2024-01-11T12:10:51;-0.30;99.90
24232;DHT22;12364;47.810;8.810;2024-01-11T12:13:19;-0.30;99.90
24232;DHT22;12364;47.810;8.810;2024-01-11T12:15:46;-0.40;99.90
24232;DHT22;12364;47.810;8.810;2024-01-11T12:18:13;-0.50;99.90
24232;DHT22;12364;47.810;8.810;2024-01-11T12:20:41;-0.50;99.90
24232;DHT22;12364;47.810;8.810;2024-01-11T12:23:08;-0.40;99.90
24232;DHT22;12364;47.810;8.810;2024-01-11T12:25:38;-0.30;99.90
24232;DHT22;12364;47.810;8.810;2024-01-11T12:28:06;-0.40;99.90
24232;DHT22;12364;47.810;8.810;2024-01-11T12:30:34;0.00;99.90
24232;DHT22;12364;47.810;8.810;2024-01-11T12:33:01;-0.20;99.90
24232;DHT22;12364;47.810;8.810;2024-01-11T12:35:30;0.00;99.90
24232;DHT22;12364;47.810;8.810;2024-01-11T12:38:00;-0.10;99.90
24232;DHT22;12364;47.810;8.810;2024-01-11T12:40:27;-0.10;99.90
24232;DHT22;12364;47.810;8.810;2024-01-11T12:42:55;-0.30;99.90
24232;DHT22;12364;47.810;8.810;2024-01-11T12:45:23;-0.40;99.90
24232;DHT22;12364;47.810;8.810;2024-01-11T12:47:52;-0.30;99.90
24232;DHT22;12364;47.810;8.810;2024-01-11T12:50:27;-0.20;99.90
24232;DHT22;12364;47.810;8.810;2024-01-11T12:53:07;-0.20;99.90
24232;DHT22;12364;47.810;8.810;2024-01-11T12:55:35;-0.30;99.90
24232;DHT22;12364;47.810;8.810;2024-01-11T12:58:20;-0.30;99.90
24232;DHT22;12364;47.810;8.810;2024-01-11T13:00:53;-0.30;99.90
24232;DHT22;12364;47.810;8.810;2024-01-11T13:03:22;-0.50;99.90
24232;DHT22;12364;47.810;8.810;2024-01-11T13:05:51;-0.30;99.90
24232;DHT22;12364;47.810;8.810;2024-01-11T13:08:20;-0.10;99.90
24232;DHT22;12364;47.810;8.810;2024-01-11T13:10:47;0.00;99.90
24232;DHT22;12364;47.810;8.810;2024-01-11T13:13:15;0.20;99.90
24232;DHT22;12364;47.810;8.810;2024-01-11T13:15:43;0.30;99.90
24232;DHT22;12364;47.810;8.810;2024-01-11T13:18:10;0.10;99.90
24232;DHT22;12364;47.810;8.810;2024-01-11T13:20:37;0.20;99.90
24232;DHT22;12364;47.810;8.810;2024-01-11T13:23:11;0.40;99.90
24232;DHT22;12364;47.810;8.810;2024-01-11T13:25:40;0.60;99.90
24232;DHT22;12364;47.810;8.810;2024-01-11T13:28:08;0.60;99.90
24232;DHT22;12364;47.810;8.810;2024-01-11T13:30:35;0.50;99.90
24232;DHT22;12364;47.810;8.810;2024-01-11T13:33:03;0.70;99.90
24232;DHT22;12364;47.810;8.810;2024-01-11T13:35:30;0.60;99.90
24232;DHT22;12364;47.810;8.810;2024-01-11T13:37:57;0.60;99.90
24232;DHT22;12364;47.810;8.810;2024-01-11T13:40:24;0.50;99.90
24232;DHT22;12364;47.810;8.810;2024-01-11T13:42:51;0.60;99.90
24232;DHT22;12364;47.810;8.810;2024-01-11T13:45:18;0.60;99.90
24232;DHT22;12364;47.810;8.810;2024-01-11T13:47:45;0.50;99.90
24232;DHT22;12364;47.810;8.810;2024-01-11T13:50:13;0.50;99.90
24232;DHT22;12364;47.810;8.810;2024-01-11T13:52:40;0.40;99.90
24232;DHT22;12364;47.810;8.810;2024-01-11T13:55:08;0.40;99.90
24232;DHT22;12364;47.810;8.810;2024-01-11T13:57:37;0.50;99.90
24232;DHT22;12364;47.810;8.810;2024-01-11T14:00:04;0.60;99.90
24232;DHT22;12364;47.810;8.810;2024-01-11T14:02:32;0.60;99.90
24232;DHT22;12364;47.810;8.810;2024-01-11T14:04:59;0.80;99.90
24232;DHT22;12364;47.810;8.810;2024-01-11T14:07:26;0.70;99.90
24232;DHT22;12364;47.810;8.810;2024-01-11T14:09:54;0.80;99.90
24232;DHT22;12364;47.810;8.810;2024-01-11T14:12:21;0.90;99.90
24232;DHT22;12364;47.810;8.810;2024-01-11T14:14:48;0.80;99.90
24232;DHT22;12364;47.810;8.810;2024-01-11T14:17:15;0.70;99.90
24232;DHT22;12364;47.810;8.810;2024-01-11T14:19:42;0.60;99.90
24232;DHT22;12364;47.810;8.810;2024-01-11T14:22:09;0.60;99.90
24232;DHT22;12364;47.810;8.810;2024-01-11T14:24:36;0.80;99.90
24232;DHT22;12364;47.810;8.810;2024-01-11T14:27:03;0.80;99.90
24232;DHT22;12364;47.810;8.810;2024-01-11T14:29:31;0.60;99.90
24232;DHT22;12364;47.810;8.810;2024-01-11T14:31:58;0.70;99.90
24232;DHT22;12364;47.810;8.810;2024-01-11T14:34:25;0.80;99.90
24232;DHT22;12364;47.810;8.810;2024-01-11T14:36:54;1.00;99.90
24232;DHT22;12364;47.810;8.810;2024-01-11T14:39:21;1.00;99.90
24232;DHT22;12364;47.810;8.810;2024-01-11T14:41:51;1.00;99.90
24232;DHT22;12364;47.810;8.810;2024-01-11T14:44:18;1.00;99.90
24232;DHT22;12364;47.810;8.810;2024-01-11T14:46:46;0.70;99.90
24232;DHT22;12364;47.810;8.810;2024-01-11T14:49:13;0.80;99.90
24232;DHT22;12364;47.810;8.810;2024-01-11T14:51:41;0.70;99.90
24232;DHT22;12364;47.810;8.810;2024-01-11T14:54:08;0.60;99.90
24232;DHT22;12364;47.810;8.810;2024-01-11T14:56:35;0.50;99.90
24232;DHT22;12364;47.810;8.810;2024-01-11T14:59:02;0.70;99.90
24232;DHT22;12364;47.810;8.810;2024-01-11T15:01:30;0.90;99.90
24232;DHT22;12364;47.810;8.810;2024-01-11T15:03:58;1.00;99.90
24232;DHT22;12364;47.810;8.810;2024-01-11T15:06:25;1.00;99.90
24232;DHT22;12364;47.810;8.810;2024-01-11T15:08:52;1.10;99.90
24232;DHT22;12364;47.810;8.810;2024-01-11T15:11:19;0.90;99.90
24232;DHT22;12364;47.810;8.810;2024-01-11T15:13:46;0.90;99.90
24232;DHT22;12364;47.810;8.810;2024-01-11T15:16:13;0.80;99.90
24232;DHT22;12364;47.810;8.810;2024-01-11T15:18:40;0.80;99.90
24232;DHT22;12364;47.810;8.810;2024-01-11T15:21:07;0.50;99.90
24232;DHT22;12364;47.810;8.810;2024-01-11T15:23:34;0.50;99.90
24232;DHT22;12364;47.810;8.810;2024-01-11T15:26:01;0.70;99.90
24232;DHT22;12364;47.810;8.810;2024-01-11T15:28:29;0.60;99.90
24232;DHT22;12364;47.810;8.810;2024-01-11T15:30:56;0.60;99.90
24232;DHT22;12364;47.810;8.810;2024-01-11T15:33:23;0.40;99.90
24232;DHT22;12364;47.810;8.810;2024-01-11T15:35:52;0.60;99.90
24232;DHT22;12364;47.810;8.810;2024-01-11T15:38:19;0.50;99.90
24232;DHT22;12364;47.810;8.810;2024-01-11T15:40:46;0.20;99.90
24232;DHT22;12364;47.810;8.810;2024-01-11T15:43:13;0.10;99.90
24232;DHT22;12364;47.810;8.810;2024-01-11T15:45:40;0.10;99.90
24232;DHT22;12364;47.810;8.810;2024-01-11T15:48:07;0.30;99.90
24232;DHT22;12364;47.810;8.810;2024-01-11T15:50:35;0.40;99.90
24232;DHT22;12364;47.810;8.810;2024-01-11T15:53:02;0.30;99.90
24232;DHT22;12364;47.810;8.810;2024-01-11T15:55:29;0.20;99.90
24232;DHT22;12364;47.810;8.810;2024-01-11T15:57:56;0.10;99.90
24232;DHT22;12364;47.810;8.810;2024-01-11T16:00:28;0.20;99.90
24232;DHT22;12364;47.810;8.810;2024-01-11T16:02:57;0.40;99.90
24232;DHT22;12364;47.810;8.810;2024-01-11T16:05:24;0.40;99.90
24232;DHT22;12364;47.810;8.810;2024-01-11T16:07:52;0.30;99.90
24232;DHT22;12364;47.810;8.810;2024-01-11T16:10:19;0.30;99.90
24232;DHT22;12364;47.810;8.810;2024-01-11T16:12:46;0.20;99.90
24232;DHT22;12364;47.810;8.810;2024-01-11T16:15:13;0.00;99.90
24232;DHT22;12364;47.810;8.810;2024-01-11T16:17:42;0.00;99.90
24232;DHT22;12364;47.810;8.810;2024-01-11T16:20:10;0.20;99.90
24232;DHT22;12364;47.810;8.810;2024-01-11T16:22:37;0.30;99.90
24232;DHT22;12364;47.810;8.810;2024-01-11T16:25:04;0.30;99.90
24232;DHT22;12364;47.810;8.810;2024-01-11T16:27:31;0.40;99.90
24232;DHT22;12364;47.810;8.810;2024-01-11T16:29:58;0.40;99.90
24232;DHT22;12364;47.810;8.810;2024-01-11T16:32:29;0.10;99.90
24232;DHT22;12364;47.810;8.810;2024-01-11T16:34:58;-0.10;99.90
24232;DHT22;12364;47.810;8.810;2024-01-11T16:37:25;-0.30;99.90
24232;DHT22;12364;47.810;8.810;2024-01-11T16:39:52;-0.60;99.90
24232;DHT22;12364;47.810;8.810;2024-01-11T16:42:19;-0.60;99.90
24232;DHT22;12364;47.810;8.810;2024-01-11T16:44:47;-0.50;99.90
24232;DHT22;12364;47.810;8.810;2024-01-11T16:47:15;-0.40;99.90
24232;DHT22;12364;47.810;8.810;2024-01-11T16:49:43;-0.20;99.90
24232;DHT22;12364;47.810;8.810;2024-01-11T16:52:10;-0.50;99.90
24232;DHT22;12364;47.810;8.810;2024-01-11T16:54:37;-0.50;99.90
24232;DHT22;12364;47.810;8.810;2024-01-11T16:57:05;-0.60;99.90
24232;DHT22;12364;47.810;8.810;2024-01-11T16:59:32;-0.80;99.90
24232;DHT22;12364;47.810;8.810;2024-01-11T17:02:00;-0.90;99.90
24232;DHT22;12364;47.810;8.810;2024-01-11T17:04:27;-0.80;99.90
24232;DHT22;12364;47.810;8.810;2024-01-11T17:06:54;-0.70;99.90
24232;DHT22;12364;47.810;8.810;2024-01-11T17:09:21;-0.80;99.90
24232;DHT22;12364;47.810;8.810;2024-01-11T17:11:48;-0.60;99.90
24232;DHT22;12364;47.810;8.810;2024-01-11T17:14:15;-0.10;99.90
24232;DHT22;12364;47.810;8.810;2024-01-11T17:16:43;-0.80;99.90
24232;DHT22;12364;47.810;8.810;2024-01-11T17:19:09;-1.30;99.90
24232;DHT22;12364;47.810;8.810;2024-01-11T17:21:37;-1.40;99.90
24232;DHT22;12364;47.810;8.810;2024-01-11T17:24:04;-1.70;99.90
24232;DHT22;12364;47.810;8.810;2024-01-11T17:26:31;-1.70;99.90
24232;DHT22;12364;47.810;8.810;2024-01-11T17:28:58;-1.60;99.90
24232;DHT22;12364;47.810;8.810;2024-01-11T17:31:26;-1.30;99.90
24232;DHT22;12364;47.810;8.810;2024-01-11T17:33:53;-1.50;99.90
24232;DHT22;12364;47.810;8.810;2024-01-11T17:36:20;-1.60;99.90
24232;DHT22;12364;47.810;8.810;2024-01-11T17:38:47;-1.60;99.90
24232;DHT22;12364;47.810;8.810;2024-01-11T17:41:15;-1.60;99.90
24232;DHT22;12364;47.810;8.810;2024-01-11T17:43:42;-2.00;99.90
24232;DHT22;12364;47.810;8.810;2024-01-11T17:46:09;-1.90;99.90
24232;DHT22;12364;47.810;8.810;2024-01-11T17:48:36;-1.70;99.90
24232;DHT22;12364;47.810;8.810;2024-01-11T17:51:09;-1.30;99.90
24232;DHT22;12364;47.810;8.810;2024-01-11T17:53:36;-1.20;99.90
24232;DHT22;12364;47.810;8.810;2024-01-11T17:56:03;-0.80;99.90
24232;DHT22;12364;47.810;8.810;2024-01-11T17:58:30;-1.30;99.90
24232;DHT22;12364;47.810;8.810;2024-01-11T18:00:57;-1.50;99.90
24232;DHT22;12364;47.810;8.810;2024-01-11T18:03:26;-1.20;99.90
24232;DHT22;12364;47.810;8.810;2024-01-11T18:05:53;-1.60;99.90
24232;DHT22;12364;47.810;8.810;2024-01-11T18:08:20;-0.90;99.90
24232;DHT22;12364;47.810;8.810;2024-01-11T18:10:47;-1.50;99.90
24232;DHT22;12364;47.810;8.810;2024-01-11T18:13:14;-1.80;99.90
24232;DHT22;12364;47.810;8.810;2024-01-11T18:15:45;-1.70;99.90
24232;DHT22;12364;47.810;8.810;2024-01-11T18:18:14;-2.20;99.90
24232;DHT22;12364;47.810;8.810;2024-01-11T18:20:42;-2.00;99.90
24232;DHT22;12364;47.810;8.810;2024-01-11T18:23:09;-2.30;99.90
24232;DHT22;12364;47.810;8.810;2024-01-11T18:25:36;-2.40;99.90
24232;DHT22;12364;47.810;8.810;2024-01-11T18:28:03;-2.60;99.90
24232;DHT22;12364;47.810;8.810;2024-01-11T18:30:30;-2.60;99.90
24232;DHT22;12364;47.810;8.810;2024-01-11T18:32:57;-2.80;99.90
24232;DHT22;12364;47.810;8.810;2024-01-11T18:35:24;-2.90;99.90
24232;DHT22;12364;47.810;8.810;2024-01-11T18:37:51;-2.40;99.90
24232;DHT22;12364;47.810;8.810;2024-01-11T18:40:18;-2.50;99.90
24232;DHT22;12364;47.810;8.810;2024-01-11T18:42:47;-2.20;99.90
24232;DHT22;12364;47.810;8.810;2024-01-11T18:45:14;-1.80;99.90
24232;DHT22;12364;47.810;8.810;2024-01-11T18:47:41;-1.90;99.90
24232;DHT22;12364;47.810;8.810;2024-01-11T18:50:08;-2.00;99.90
24232;DHT22;12364;47.810;8.810;2024-01-11T18:52:35;-2.10;99.90
24232;DHT22;12364;47.810;8.810;2024-01-11T18:55:05;-2.10;99.90
24232;DHT22;12364;47.810;8.810;2024-01-11T18:57:43;-2.70;99.90
24232;DHT22;12364;47.810;8.810;2024-01-11T19:00:10;-2.10;99.90
24232;DHT22;12364;47.810;8.810;2024-01-11T19:02:38;-2.40;99.90
24232;DHT22;12364;47.810;8.810;2024-01-11T19:05:05;-2.30;99.90
24232;DHT22;12364;47.810;8.810;2024-01-11T19:07:32;-2.30;99.90
24232;DHT22;12364;47.810;8.810;2024-01-11T19:09:59;-1.90;99.90
24232;DHT22;12364;47.810;8.810;2024-01-11T19:12:26;-2.50;99.90
24232;DHT22;12364;47.810;8.810;2024-01-11T19:14:53;-2.80;99.90
24232;DHT22;12364;47.810;8.810;2024-01-11T19:17:20;-3.00;99.90
24232;DHT22;12364;47.810;8.810;2024-01-11T19:19:47;-3.00;99.90
24232;DHT22;12364;47.810;8.810;2024-01-11T19:22:15;-2.60;99.90
24232;DHT22;12364;47.810;8.810;2024-01-11T19:24:42;-2.80;99.90
24232;DHT22;12364;47.810;8.810;2024-01-11T19:27:09;-2.90;99.90
24232;DHT22;12364;47.810;8.810;2024-01-11T19:29:35;-2.90;99.90
24232;DHT22;12364;47.810;8.810;2024-01-11T19:32:03;-2.60;99.90
24232;DHT22;12364;47.810;8.810;2024-01-11T19:34:30;-2.60;99.90
24232;DHT22;12364;47.810;8.810;2024-01-11T19:36:57;-2.40;99.90
24232;DHT22;12364;47.810;8.810;2024-01-11T19:39:24;-2.90;99.90
24232;DHT22;12364;47.810;8.810;2024-01-11T19:41:51;-2.90;99.90
24232;DHT22;12364;47.810;8.810;2024-01-11T19:44:18;-2.90;99.90
24232;DHT22;12364;47.810;8.810;2024-01-11T19:46:45;-2.40;99.90
24232;DHT22;12364;47.810;8.810;2024-01-11T19:49:12;-1.90;99.90
24232;DHT22;12364;47.810;8.810;2024-01-11T19:51:40;-1.60;99.90
24232;DHT22;12364;47.810;8.810;2024-01-11T19:54:06;-1.80;99.90
24232;DHT22;12364;47.810;8.810;2024-01-11T19:56:33;-2.50;99.90
24232;DHT22;12364;47.810;8.810;2024-01-11T19:59:01;-3.00;99.90
24232;DHT22;12364;47.810;8.810;2024-01-11T20:01:28;-3.30;99.90
24232;DHT22;12364;47.810;8.810;2024-01-11T20:03:55;-2.90;99.90
24232;DHT22;12364;47.810;8.810;2024-01-11T20:06:26;-3.10;99.90
24232;DHT22;12364;47.810;8.810;2024-01-11T20:08:53;-3.30;99.90
24232;DHT22;12364;47.810;8.810;2024-01-11T20:11:20;-3.40;99.90
24232;DHT22;12364;47.810;8.810;2024-01-11T20:13:48;-3.50;99.90
24232;DHT22;12364;47.810;8.810;2024-01-11T20:16:15;-3.90;99.90
24232;DHT22;12364;47.810;8.810;2024-01-11T20:18:42;-3.80;99.90
24232;DHT22;12364;47.810;8.810;2024-01-11T20:21:10;-3.80;99.90
24232;DHT22;12364;47.810;8.810;2024-01-11T20:23:39;-3.80;99.90
24232;DHT22;12364;47.810;8.810;2024-01-11T20:26:11;-4.00;99.90